sensor_id;sensor_type;location;lat;lon;timestamp;temperature;humidity
52459;DHT22;38372;52.902;6.024;2023-07-22T00:00:16;13.40;99.90
52459;DHT22;38372;52.902;6.024;2023-07-22T00:02:42;13.30;99.90
52459;DHT22;38372;52.902;6.024;2023-07-22T00:05:09;13.30;99.90
52459;DHT22;38372;52.902;6.024;2023-07-22T00:07:36;13.20;99.90
52459;DHT22;38372;52.902;6.024;2023-07-22T00:10:02;13.20;99.90
52459;DHT22;38372;52.902;6.024;2023-07-22T00:12:28;13.20;99.90
52459;DHT22;38372;52.902;6.024;2023-07-22T00:14:54;13.20;99.90
52459;DHT22;38372;52.902;6.024;2023-07-22T00:17:20;13.20;99.90
52459;DHT22;38372;52.902;6.024;2023-07-22T00:19:47;13.20;99.90
52459;DHT22;38372;52.902;6.024;2023-07-22T00:22:14;13.30;99.90
52459;DHT22;38372;52.902;6.024;2023-07-22T00:24:41;13.30;99.90
52459;DHT22;38372;52.902;6.024;2023-07-22T00:27:07;13.30;99.90
52459;DHT22;38372;52.902;6.024;2023-07-22T00:29:35;13.40;99.90
52459;DHT22;38372;52.902;6.024;2023-07-22T00:32:00;13.40;99.90
52459;DHT22;38372;52.902;6.024;2023-07-22T00:34:26;13.30;99.90
52459;DHT22;38372;52.902;6.024;2023-07-22T00:36:52;13.30;99.90
52459;DHT22;38372;52.902;6.024;2023-07-22T00:39:18;13.20;99.90
52459;DHT22;38372;52.902;6.024;2023-07-22T00:41:44;13.20;99.90
52459;DHT22;38372;52.902;6.024;2023-07-22T00:44:11;13.10;99.90
52459;DHT22;38372;52.902;6.024;2023-07-22T00:46:38;13.10;99.90
52459;DHT22;38372;52.902;6.024;2023-07-22T00:49:06;13.10;99.90
52459;DHT22;38372;52.902;6.024;2023-07-22T00:51:33;13.00;99.90
52459;DHT22;38372;52.902;6.024;2023-07-22T00:53:59;13.00;99.90
52459;DHT22;38372;52.902;6.024;2023-07-22T00:56:25;13.00;99.90
52459;DHT22;38372;52.902;6.024;2023-07-22T00:58:51;12.90;99.90
52459;DHT22;38372;52.902;6.024;2023-07-22T01:01:17;12.90;99.90
52459;DHT22;38372;52.902;6.024;2023-07-22T01:03:43;12.80;99.90
52459;DHT22;38372;52.902;6.024;2023-07-22T01:06:13;12.70;99.90
52459;DHT22;38372;52.902;6.024;2023-07-22T01:08:39;12.60;99.90
52459;DHT22;38372;52.902;6.024;2023-07-22T01:11:05;12.60;99.90
52459;DHT22;38372;52.902;6.024;2023-07-22T01:13:31;12.50;99.90
52459;DHT22;38372;52.902;6.024;2023-07-22T01:15:58;12.50;99.90
52459;DHT22;38372;52.902;6.024;2023-07-22T01:18:24;12.40;99.90
52459;DHT22;38372;52.902;6.024;2023-07-22T01:20:50;12.30;99.90
52459;DHT22;38372;52.902;6.024;2023-07-22T01:23:16;12.20;99.90
52459;DHT22;38372;52.902;6.024;2023-07-22T01:25:43;12.10;99.90
52459;DHT22;38372;52.902;6.024;2023-07-22T01:28:10;12.10;99.90
52459;DHT22;38372;52.902;6.024;2023-07-22T01:30:36;12.10;99.90
52459;DHT22;38372;52.902;6.024;2023-07-22T01:33:02;12.00;99.90
52459;DHT22;38372;52.902;6.024;2023-07-22T01:35:28;12.00;99.90
52459;DHT22;38372;52.902;6.024;2023-07-22T01:37:54;12.00;99.90
52459;DHT22;38372;52.902;6.024;2023-07-22T01:40:20;11.90;99.90
52459;DHT22;38372;52.902;6.024;2023-07-22T01:42:46;11.90;99.90
52459;DHT22;38372;52.902;6.024;2023-07-22T01:45:12;11.80;99.90
52459;DHT22;38372;52.902;6.024;2023-07-22T01:47:38;11.70;99.90
52459;DHT22;38372;52.902;6.024;2023-07-22T01:50:05;11.70;99.90
52459;DHT22;38372;52.902;6.024;2023-07-22T01:52:34;11.70;99.90
52459;DHT22;38372;52.902;6.024;2023-07-22T01:55:00;11.70;99.90
52459;DHT22;38372;52.902;6.024;2023-07-22T01:57:26;11.70;99.90
52459;DHT22;38372;52.902;6.024;2023-07-22T01:59:52;11.70;99.90
52459;DHT22;38372;52.902;6.024;2023-07-22T02:02:19;11.70;99.90
52459;DHT22;38372;52.902;6.024;2023-07-22T02:04:44;11.70;99.90
52459;DHT22;38372;52.902;6.024;2023-07-22T02:07:10;11.70;99.90
52459;DHT22;38372;52.902;6.024;2023-07-22T02:09:36;11.70;99.90
52459;DHT22;38372;52.902;6.024;2023-07-22T02:12:02;11.80;99.90
52459;DHT22;38372;52.902;6.024;2023-07-22T02:14:28;11.80;99.90
52459;DHT22;38372;52.902;6.024;2023-07-22T02:16:54;11.80;99.90
52459;DHT22;38372;52.902;6.024;2023-07-22T02:19:20;11.90;99.90
52459;DHT22;38372;52.902;6.024;2023-07-22T02:21:45;11.90;99.90
52459;DHT22;38372;52.902;6.024;2023-07-22T02:24:14;11.90;99.90
52459;DHT22;38372;52.902;6.024;2023-07-22T02:26:40;12.00;99.90
52459;DHT22;38372;52.902;6.024;2023-07-22T02:29:06;12.00;99.90
52459;DHT22;38372;52.902;6.024;2023-07-22T02:31:33;12.10;99.90
52459;DHT22;38372;52.902;6.024;2023-07-22T02:33:58;12.20;99.90
52459;DHT22;38372;52.902;6.024;2023-07-22T02:36:24;12.20;99.90
52459;DHT22;38372;52.902;6.024;2023-07-22T02:38:50;12.30;99.90
52459;DHT22;38372;52.902;6.024;2023-07-22T02:41:16;12.30;99.90
52459;DHT22;38372;52.902;6.024;2023-07-22T02:43:42;12.40;99.90
52459;DHT22;38372;52.902;6.024;2023-07-22T02:46:09;12.50;99.90
52459;DHT22;38372;52.902;6.024;2023-07-22T02:48:34;12.50;99.90
52459;DHT22;38372;52.902;6.024;2023-07-22T02:51:07;12.60;99.90
52459;DHT22;38372;52.902;6.024;2023-07-22T02:53:34;12.60;99.90
52459;DHT22;38372;52.902;6.024;2023-07-22T02:56:03;12.60;99.90
52459;DHT22;38372;52.902;6.024;2023-07-22T02:58:29;12.60;99.90
52459;DHT22;38372;52.902;6.024;2023-07-22T03:00:55;12.60;99.90
52459;DHT22;38372;52.902;6.024;2023-07-22T03:03:23;12.60;99.90
52459;DHT22;38372;52.902;6.024;2023-07-22T03:05:49;12.70;99.90
52459;DHT22;38372;52.902;6.024;2023-07-22T03:08:15;12.70;99.90
52459;DHT22;38372;52.902;6.024;2023-07-22T03:10:41;12.70;99.90
52459;DHT22;38372;52.902;6.024;2023-07-22T03:13:09;12.70;99.90
52459;DHT22;38372;52.902;6.024;2023-07-22T03:15:35;12.70;99.90
52459;DHT22;38372;52.902;6.024;2023-07-22T03:18:00;12.80;99.90
52459;DHT22;38372;52.902;6.024;2023-07-22T03:20:27;12.80;99.90
52459;DHT22;38372;52.902;6.024;2023-07-22T03:22:52;12.80;99.90
52459;DHT22;38372;52.902;6.024;2023-07-22T03:25:19;12.90;99.90
52459;DHT22;38372;52.902;6.024;2023-07-22T03:27:46;12.90;99.90
52459;DHT22;38372;52.902;6.024;2023-07-22T03:30:14;12.90;99.90
52459;DHT22;38372;52.902;6.024;2023-07-22T03:32:41;12.90;99.90
52459;DHT22;38372;52.902;6.024;2023-07-22T03:35:08;13.00;99.90
52459;DHT22;38372;52.902;6.024;2023-07-22T03:37:38;13.00;99.90
52459;DHT22;38372;52.902;6.024;2023-07-22T03:40:04;13.00;99.90
52459;DHT22;38372;52.902;6.024;2023-07-22T03:42:36;13.10;99.90
52459;DHT22;38372;52.902;6.024;2023-07-22T03:45:02;13.10;99.90
52459;DHT22;38372;52.902;6.024;2023-07-22T03:47:28;13.10;99.90
52459;DHT22;38372;52.902;6.024;2023-07-22T03:49:54;13.10;99.90
52459;DHT22;38372;52.902;6.024;2023-07-22T03:52:19;13.20;99.90
52459;DHT22;38372;52.902;6.024;2023-07-22T03:54:45;13.20;99.90
52459;DHT22;38372;52.902;6.024;2023-07-22T03:57:11;13.20;99.90
52459;DHT22;38372;52.902;6.024;2023-07-22T03:59:38;13.20;99.90
52459;DHT22;38372;52.902;6.024;2023-07-22T04:02:04;13.20;99.90
52459;DHT22;38372;52.902;6.024;2023-07-22T04:04:31;13.30;99.90
52459;DHT22;38372;52.902;6.024;2023-07-22T04:06:57;13.30;99.90
52459;DHT22;38372;52.902;6.024;2023-07-22T04:09:23;13.30;99.90
52459;DHT22;38372;52.902;6.024;2023-07-22T04:11:48;13.30;99.90
52459;DHT22;38372;52.902;6.024;2023-07-22T04:14:14;13.30;99.90
52459;DHT22;38372;52.902;6.024;2023-07-22T04:16:41;13.30;99.90
52459;DHT22;38372;52.902;6.024;2023-07-22T04:19:07;13.30;99.90
52459;DHT22;38372;52.902;6.024;2023-07-22T04:21:32;13.30;99.90
52459;DHT22;38372;52.902;6.024;2023-07-22T04:23:58;13.30;99.90
52459;DHT22;38372;52.902;6.024;2023-07-22T04:26:24;13.40;99.90
52459;DHT22;38372;52.902;6.024;2023-07-22T04:28:50;13.40;99.90
52459;DHT22;38372;52.902;6.024;2023-07-22T04:31:16;13.40;99.90
52459;DHT22;38372;52.902;6.024;2023-07-22T04:33:41;13.40;99.90
52459;DHT22;38372;52.902;6.024;2023-07-22T04:36:07;13.40;99.90
52459;DHT22;38372;52.902;6.024;2023-07-22T04:38:33;13.40;99.90
52459;DHT22;38372;52.902;6.024;2023-07-22T04:40:59;13.50;99.90
52459;DHT22;38372;52.902;6.024;2023-07-22T04:43:27;13.50;99.90
52459;DHT22;38372;52.902;6.024;2023-07-22T04:45:53;13.50;99.90
52459;DHT22;38372;52.902;6.024;2023-07-22T04:48:20;13.50;99.90
52459;DHT22;38372;52.902;6.024;2023-07-22T04:50:46;13.50;99.90
52459;DHT22;38372;52.902;6.024;2023-07-22T04:53:13;13.50;99.90
52459;DHT22;38372;52.902;6.024;2023-07-22T04:55:39;13.50;99.90
52459;DHT22;38372;52.902;6.024;2023-07-22T04:58:05;13.60;99.90
52459;DHT22;38372;52.902;6.024;2023-07-22T05:00:31;13.60;99.90
52459;DHT22;38372;52.902;6.024;2023-07-22T05:02:59;13.60;99.90
52459;DHT22;38372;52.902;6.024;2023-07-22T05:05:25;13.60;99.90
52459;DHT22;38372;52.902;6.024;2023-07-22T05:07:51;13.60;99.90
52459;DHT22;38372;52.902;6.024;2023-07-22T05:10:18;13.60;99.90
52459;DHT22;38372;52.902;6.024;2023-07-22T05:12:45;13.70;99.90
52459;DHT22;38372;52.902;6.024;2023-07-22T05:15:11;13.70;99.90
52459;DHT22;38372;52.902;6.024;2023-07-22T05:17:38;13.80;99.90
52459;DHT22;38372;52.902;6.024;2023-07-22T05:20:04;13.80;99.90
52459;DHT22;38372;52.902;6.024;2023-07-22T05:22:40;13.90;99.90
52459;DHT22;38372;52.902;6.024;2023-07-22T05:25:06;14.00;99.90
52459;DHT22;38372;52.902;6.024;2023-07-22T05:27:32;14.00;99.90
52459;DHT22;38372;52.902;6.024;2023-07-22T05:29:58;14.00;99.90
52459;DHT22;38372;52.902;6.024;2023-07-22T05:32:25;14.10;99.90
52459;DHT22;38372;52.902;6.024;2023-07-22T05:34:51;14.10;99.90
52459;DHT22;38372;52.902;6.024;2023-07-22T05:37:16;14.10;99.90
52459;DHT22;38372;52.902;6.024;2023-07-22T05:39:42;14.20;99.90
52459;DHT22;38372;52.902;6.024;2023-07-22T05:42:08;14.20;99.90
52459;DHT22;38372;52.902;6.024;2023-07-22T05:44:34;14.30;99.90
52459;DHT22;38372;52.902;6.024;2023-07-22T05:47:00;14.40;99.90
52459;DHT22;38372;52.902;6.024;2023-07-22T05:49:25;14.40;99.90
52459;DHT22;38372;52.902;6.024;2023-07-22T05:51:51;14.40;99.90
52459;DHT22;38372;52.902;6.024;2023-07-22T05:54:17;14.40;99.90
52459;DHT22;38372;52.902;6.024;2023-07-22T05:56:43;14.50;99.90
52459;DHT22;38372;52.902;6.024;2023-07-22T05:59:09;14.50;99.90
52459;DHT22;38372;52.902;6.024;2023-07-22T06:01:35;14.50;99.90
52459;DHT22;38372;52.902;6.024;2023-07-22T06:04:01;14.50;99.90
52459;DHT22;38372;52.902;6.024;2023-07-22T06:06:27;14.60;99.90
52459;DHT22;38372;52.902;6.024;2023-07-22T06:08:53;14.60;99.90
52459;DHT22;38372;52.902;6.024;2023-07-22T06:11:18;14.70;99.90
52459;DHT22;38372;52.902;6.024;2023-07-22T06:13:44;14.80;99.90
52459;DHT22;38372;52.902;6.024;2023-07-22T06:16:10;14.80;99.90
52459;DHT22;38372;52.902;6.024;2023-07-22T06:18:36;14.90;99.90
52459;DHT22;38372;52.902;6.024;2023-07-22T06:21:02;15.00;99.90
52459;DHT22;38372;52.902;6.024;2023-07-22T06:23:28;15.00;99.90
52459;DHT22;38372;52.902;6.024;2023-07-22T06:25:54;15.10;99.90
52459;DHT22;38372;52.902;6.024;2023-07-22T06:28:19;15.10;99.90
52459;DHT22;38372;52.902;6.024;2023-07-22T06:30:45;15.10;99.90
52459;DHT22;38372;52.902;6.024;2023-07-22T06:33:11;15.10;99.90
52459;DHT22;38372;52.902;6.024;2023-07-22T06:35:37;15.20;99.90
52459;DHT22;38372;52.902;6.024;2023-07-22T06:38:03;15.30;99.90
52459;DHT22;38372;52.902;6.024;2023-07-22T06:40:28;15.30;99.90
52459;DHT22;38372;52.902;6.024;2023-07-22T06:42:54;15.30;99.90
52459;DHT22;38372;52.902;6.024;2023-07-22T06:45:20;15.40;99.90
52459;DHT22;38372;52.902;6.024;2023-07-22T06:47:46;15.40;99.90
52459;DHT22;38372;52.902;6.024;2023-07-22T06:50:12;15.50;99.90
52459;DHT22;38372;52.902;6.024;2023-07-22T06:52:38;15.50;99.90
52459;DHT22;38372;52.902;6.024;2023-07-22T06:55:04;15.50;99.90
52459;DHT22;38372;52.902;6.024;2023-07-22T06:57:30;15.60;99.90
52459;DHT22;38372;52.902;6.024;2023-07-22T06:59:57;15.60;99.90
52459;DHT22;38372;52.902;6.024;2023-07-22T07:02:22;15.70;99.90
52459;DHT22;38372;52.902;6.024;2023-07-22T07:04:49;15.80;99.90
52459;DHT22;38372;52.902;6.024;2023-07-22T07:07:15;15.80;99.90
52459;DHT22;38372;52.902;6.024;2023-07-22T07:09:41;15.80;99.90
52459;DHT22;38372;52.902;6.024;2023-07-22T07:12:08;15.80;99.90
52459;DHT22;38372;52.902;6.024;2023-07-22T07:14:34;15.80;99.90
52459;DHT22;38372;52.902;6.024;2023-07-22T07:17:01;15.90;99.90
52459;DHT22;38372;52.902;6.024;2023-07-22T07:19:27;15.90;99.90
52459;DHT22;38372;52.902;6.024;2023-07-22T07:21:53;16.10;99.90
52459;DHT22;38372;52.902;6.024;2023-07-22T07:24:19;16.20;99.90
52459;DHT22;38372;52.902;6.024;2023-07-22T07:26:46;16.40;99.90
52459;DHT22;38372;52.902;6.024;2023-07-22T07:29:12;16.50;99.90
52459;DHT22;38372;52.902;6.024;2023-07-22T07:31:38;16.60;99.90
52459;DHT22;38372;52.902;6.024;2023-07-22T07:34:04;16.70;99.90
52459;DHT22;38372;52.902;6.024;2023-07-22T07:36:32;16.70;99.90
52459;DHT22;38372;52.902;6.024;2023-07-22T07:38:58;16.90;99.90
52459;DHT22;38372;52.902;6.024;2023-07-22T07:41:23;16.90;99.90
52459;DHT22;38372;52.902;6.024;2023-07-22T07:43:49;17.00;99.90
52459;DHT22;38372;52.902;6.024;2023-07-22T07:46:21;17.10;99.90
52459;DHT22;38372;52.902;6.024;2023-07-22T07:48:49;17.10;99.90
52459;DHT22;38372;52.902;6.024;2023-07-22T07:51:16;17.10;99.90
52459;DHT22;38372;52.902;6.024;2023-07-22T07:53:43;17.00;99.90
52459;DHT22;38372;52.902;6.024;2023-07-22T07:56:16;16.90;99.90
52459;DHT22;38372;52.902;6.024;2023-07-22T07:58:43;16.80;99.90
52459;DHT22;38372;52.902;6.024;2023-07-22T08:01:09;16.70;99.90
52459;DHT22;38372;52.902;6.024;2023-07-22T08:03:36;16.60;99.90
52459;DHT22;38372;52.902;6.024;2023-07-22T08:06:02;16.50;99.90
52459;DHT22;38372;52.902;6.024;2023-07-22T08:08:29;16.40;99.90
52459;DHT22;38372;52.902;6.024;2023-07-22T08:10:59;16.30;99.90
52459;DHT22;38372;52.902;6.024;2023-07-22T08:13:25;16.10;99.90
52459;DHT22;38372;52.902;6.024;2023-07-22T08:15:52;15.90;99.90
52459;DHT22;38372;52.902;6.024;2023-07-22T08:18:18;15.80;99.90
52459;DHT22;38372;52.902;6.024;2023-07-22T08:20:44;15.60;99.90
52459;DHT22;38372;52.902;6.024;2023-07-22T08:23:13;15.50;99.90
52459;DHT22;38372;52.902;6.024;2023-07-22T08:25:38;15.30;99.90
52459;DHT22;38372;52.902;6.024;2023-07-22T08:28:04;15.30;99.90
52459;DHT22;38372;52.902;6.024;2023-07-22T08:30:30;15.30;99.90
52459;DHT22;38372;52.902;6.024;2023-07-22T08:32:56;15.20;99.90
52459;DHT22;38372;52.902;6.024;2023-07-22T08:35:21;15.30;99.90
52459;DHT22;38372;52.902;6.024;2023-07-22T08:37:48;15.30;99.90
52459;DHT22;38372;52.902;6.024;2023-07-22T08:40:13;15.30;99.90
52459;DHT22;38372;52.902;6.024;2023-07-22T08:42:41;15.40;99.90
52459;DHT22;38372;52.902;6.024;2023-07-22T08:45:10;15.50;99.90
52459;DHT22;38372;52.902;6.024;2023-07-22T08:47:46;15.60;99.90
52459;DHT22;38372;52.902;6.024;2023-07-22T08:50:16;15.70;99.90
52459;DHT22;38372;52.902;6.024;2023-07-22T08:52:45;15.70;99.90
52459;DHT22;38372;52.902;6.024;2023-07-22T08:55:12;15.80;99.90
52459;DHT22;38372;52.902;6.024;2023-07-22T08:57:39;15.80;99.90
52459;DHT22;38372;52.902;6.024;2023-07-22T09:00:07;15.90;99.90
52459;DHT22;38372;52.902;6.024;2023-07-22T09:02:36;15.80;99.90
52459;DHT22;38372;52.902;6.024;2023-07-22T09:05:03;15.90;99.90
52459;DHT22;38372;52.902;6.024;2023-07-22T09:07:29;15.90;99.90
52459;DHT22;38372;52.902;6.024;2023-07-22T09:09:57;15.90;99.90
52459;DHT22;38372;52.902;6.024;2023-07-22T09:12:24;15.90;99.90
52459;DHT22;38372;52.902;6.024;2023-07-22T09:14:51;15.90;99.90
52459;DHT22;38372;52.902;6.024;2023-07-22T09:17:17;15.90;99.90
52459;DHT22;38372;52.902;6.024;2023-07-22T09:19:43;15.90;99.90
52459;DHT22;38372;52.902;6.024;2023-07-22T09:22:09;16.00;99.90
52459;DHT22;38372;52.902;6.024;2023-07-22T09:24:35;16.00;99.90
52459;DHT22;38372;52.902;6.024;2023-07-22T09:27:00;16.00;99.90
52459;DHT22;38372;52.902;6.024;2023-07-22T09:29:39;16.00;99.90
52459;DHT22;38372;52.902;6.024;2023-07-22T09:32:10;16.00;99.90
52459;DHT22;38372;52.902;6.024;2023-07-22T09:34:36;16.10;99.90
52459;DHT22;38372;52.902;6.024;2023-07-22T09:37:01;16.10;99.90
52459;DHT22;38372;52.902;6.024;2023-07-22T09:39:29;16.10;99.90
52459;DHT22;38372;52.902;6.024;2023-07-22T09:41:55;16.10;99.90
52459;DHT22;38372;52.902;6.024;2023-07-22T09:44:22;16.10;99.90
52459;DHT22;38372;52.902;6.024;2023-07-22T09:46:51;16.10;99.90
52459;DHT22;38372;52.902;6.024;2023-07-22T09:49:18;16.20;99.90
52459;DHT22;38372;52.902;6.024;2023-07-22T09:51:44;16.10;99.90
52459;DHT22;38372;52.902;6.024;2023-07-22T09:54:10;16.10;99.90
52459;DHT22;38372;52.902;6.024;2023-07-22T09:56:50;16.00;99.90
52459;DHT22;38372;52.902;6.024;2023-07-22T09:59:17;16.00;99.90
52459;DHT22;38372;52.902;6.024;2023-07-22T10:01:44;16.00;99.90
52459;DHT22;38372;52.902;6.024;2023-07-22T10:04:15;16.00;99.90
52459;DHT22;38372;52.902;6.024;2023-07-22T10:06:42;16.00;99.90
52459;DHT22;38372;52.902;6.024;2023-07-22T10:09:10;16.00;99.90
52459;DHT22;38372;52.902;6.024;2023-07-22T10:11:37;16.10;99.90
52459;DHT22;38372;52.902;6.024;2023-07-22T10:14:05;16.20;99.90
52459;DHT22;38372;52.902;6.024;2023-07-22T10:16:31;16.20;99.90
52459;DHT22;38372;52.902;6.024;2023-07-22T10:18:59;16.30;99.90
52459;DHT22;38372;52.902;6.024;2023-07-22T10:21:25;16.30;99.90
52459;DHT22;38372;52.902;6.024;2023-07-22T10:23:51;16.20;99.90
52459;DHT22;38372;52.902;6.024;2023-07-22T10:26:19;16.20;99.90
52459;DHT22;38372;52.902;6.024;2023-07-22T10:28:46;16.20;99.90
52459;DHT22;38372;52.902;6.024;2023-07-22T10:31:14;16.10;99.90
52459;DHT22;38372;52.902;6.024;2023-07-22T10:33:46;16.10;99.90
52459;DHT22;38372;52.902;6.024;2023-07-22T10:36:15;16.10;99.90
52459;DHT22;38372;52.902;6.024;2023-07-22T10:38:44;16.10;99.90
52459;DHT22;38372;52.902;6.024;2023-07-22T10:41:20;16.10;99.90
52459;DHT22;38372;52.902;6.024;2023-07-22T10:43:55;16.10;99.90
52459;DHT22;38372;52.902;6.024;2023-07-22T10:46:35;16.10;99.90
52459;DHT22;38372;52.902;6.024;2023-07-22T10:49:13;16.10;99.90
52459;DHT22;38372;52.902;6.024;2023-07-22T10:51:40;16.10;99.90
52459;DHT22;38372;52.902;6.024;2023-07-22T10:54:32;16.10;99.90
52459;DHT22;38372;52.902;6.024;2023-07-22T10:59:50;15.90;99.90
52459;DHT22;38372;52.902;6.024;2023-07-22T11:02:26;15.80;99.90
52459;DHT22;38372;52.902;6.024;2023-07-22T11:04:52;15.80;99.90
52459;DHT22;38372;52.902;6.024;2023-07-22T11:07:54;15.70;99.90
52459;DHT22;38372;52.902;6.024;2023-07-22T11:10:28;15.70;99.90
52459;DHT22;38372;52.902;6.024;2023-07-22T11:12:54;15.70;99.90
52459;DHT22;38372;52.902;6.024;2023-07-22T11:15:19;15.70;99.90
52459;DHT22;38372;52.902;6.024;2023-07-22T11:17:48;15.70;99.90
52459;DHT22;38372;52.902;6.024;2023-07-22T11:20:14;15.70;99.90
52459;DHT22;38372;52.902;6.024;2023-07-22T11:22:40;15.60;99.90
52459;DHT22;38372;52.902;6.024;2023-07-22T11:25:07;15.60;99.90
52459;DHT22;38372;52.902;6.024;2023-07-22T11:27:33;15.60;99.90
52459;DHT22;38372;52.902;6.024;2023-07-22T11:29:59;15.60;99.90
52459;DHT22;38372;52.902;6.024;2023-07-22T11:32:24;15.50;99.90
52459;DHT22;38372;52.902;6.024;2023-07-22T11:34:53;15.50;99.90
52459;DHT22;38372;52.902;6.024;2023-07-22T11:37:19;15.50;99.90
52459;DHT22;38372;52.902;6.024;2023-07-22T11:39:45;15.50;99.90
52459;DHT22;38372;52.902;6.024;2023-07-22T11:42:11;15.40;99.90
52459;DHT22;38372;52.902;6.024;2023-07-22T11:44:38;15.40;99.90
52459;DHT22;38372;52.902;6.024;2023-07-22T11:47:05;15.40;99.90
52459;DHT22;38372;52.902;6.024;2023-07-22T11:49:47;15.50;99.90
52459;DHT22;38372;52.902;6.024;2023-07-22T11:52:17;15.50;99.90
52459;DHT22;38372;52.902;6.024;2023-07-22T11:54:44;15.50;99.90
52459;DHT22;38372;52.902;6.024;2023-07-22T11:57:18;15.50;99.90
52459;DHT22;38372;52.902;6.024;2023-07-22T11:59:48;15.50;99.90
52459;DHT22;38372;52.902;6.024;2023-07-22T12:02:20;15.50;99.90
52459;DHT22;38372;52.902;6.024;2023-07-22T12:07:23;15.60;99.90
52459;DHT22;38372;52.902;6.024;2023-07-22T12:09:49;15.60;99.90
52459;DHT22;38372;52.902;6.024;2023-07-22T12:12:15;15.70;99.90
52459;DHT22;38372;52.902;6.024;2023-07-22T12:14:41;15.70;99.90
52459;DHT22;38372;52.902;6.024;2023-07-22T12:17:08;15.70;99.90
52459;DHT22;38372;52.902;6.024;2023-07-22T12:19:35;15.80;99.90
52459;DHT22;38372;52.902;6.024;2023-07-22T12:22:00;15.80;99.90
52459;DHT22;38372;52.902;6.024;2023-07-22T12:24:28;15.90;99.90
52459;DHT22;38372;52.902;6.024;2023-07-22T12:26:54;15.90;99.90
52459;DHT22;38372;52.902;6.024;2023-07-22T12:29:21;16.00;99.90
52459;DHT22;38372;52.902;6.024;2023-07-22T12:31:51;16.10;99.90
52459;DHT22;38372;52.902;6.024;2023-07-22T12:34:17;16.10;99.90
52459;DHT22;38372;52.902;6.024;2023-07-22T12:36:43;16.10;99.90
52459;DHT22;38372;52.902;6.024;2023-07-22T12:39:09;16.20;99.90
52459;DHT22;38372;52.902;6.024;2023-07-22T12:41:35;16.20;99.90
52459;DHT22;38372;52.902;6.024;2023-07-22T12:44:01;16.20;99.90
52459;DHT22;38372;52.902;6.024;2023-07-22T12:46:27;16.20;99.90
52459;DHT22;38372;52.902;6.024;2023-07-22T12:48:52;16.30;99.90
52459;DHT22;38372;52.902;6.024;2023-07-22T12:51:18;16.40;99.90
52459;DHT22;38372;52.902;6.024;2023-07-22T12:53:44;16.40;99.90
52459;DHT22;38372;52.902;6.024;2023-07-22T12:56:10;16.30;99.90
52459;DHT22;38372;52.902;6.024;2023-07-22T12:58:35;16.30;99.90
52459;DHT22;38372;52.902;6.024;2023-07-22T13:01:01;16.40;99.90
52459;DHT22;38372;52.902;6.024;2023-07-22T13:03:27;16.50;99.90
52459;DHT22;38372;52.902;6.024;2023-07-22T13:05:53;16.70;99.90
52459;DHT22;38372;52.902;6.024;2023-07-22T13:08:18;16.90;99.90
52459;DHT22;38372;52.902;6.024;2023-07-22T13:10:44;17.10;99.90
52459;DHT22;38372;52.902;6.024;2023-07-22T13:13:12;17.30;99.90
52459;DHT22;38372;52.902;6.024;2023-07-22T13:15:38;17.40;99.90
52459;DHT22;38372;52.902;6.024;2023-07-22T13:18:04;17.50;99.90
52459;DHT22;38372;52.902;6.024;2023-07-22T13:20:30;17.60;99.90
52459;DHT22;38372;52.902;6.024;2023-07-22T13:22:55;17.70;99.90
52459;DHT22;38372;52.902;6.024;2023-07-22T13:25:21;17.80;99.90
52459;DHT22;38372;52.902;6.024;2023-07-22T13:27:47;17.80;99.90
52459;DHT22;38372;52.902;6.024;2023-07-22T13:30:13;17.90;99.90
52459;DHT22;38372;52.902;6.024;2023-07-22T13:32:39;17.90;99.90
52459;DHT22;38372;52.902;6.024;2023-07-22T13:35:06;18.00;99.90
52459;DHT22;38372;52.902;6.024;2023-07-22T13:37:31;18.10;99.90
52459;DHT22;38372;52.902;6.024;2023-07-22T13:39:57;18.20;99.90
52459;DHT22;38372;52.902;6.024;2023-07-22T13:42:23;18.20;99.90
52459;DHT22;38372;52.902;6.024;2023-07-22T13:44:50;18.20;99.90
52459;DHT22;38372;52.902;6.024;2023-07-22T13:47:16;18.20;99.90
52459;DHT22;38372;52.902;6.024;2023-07-22T13:49:43;18.30;99.90
52459;DHT22;38372;52.902;6.024;2023-07-22T13:52:09;18.40;99.90
52459;DHT22;38372;52.902;6.024;2023-07-22T13:54:34;18.30;99.90
52459;DHT22;38372;52.902;6.024;2023-07-22T13:57:00;18.30;99.90
52459;DHT22;38372;52.902;6.024;2023-07-22T13:59:26;18.30;99.90
52459;DHT22;38372;52.902;6.024;2023-07-22T14:01:52;18.20;99.90
52459;DHT22;38372;52.902;6.024;2023-07-22T14:04:17;18.20;99.90
52459;DHT22;38372;52.902;6.024;2023-07-22T14:06:43;18.10;99.90
52459;DHT22;38372;52.902;6.024;2023-07-22T14:09:09;18.10;99.90
52459;DHT22;38372;52.902;6.024;2023-07-22T14:11:35;18.10;99.90
52459;DHT22;38372;52.902;6.024;2023-07-22T14:14:01;18.10;99.90
52459;DHT22;38372;52.902;6.024;2023-07-22T14:16:26;18.10;99.90
52459;DHT22;38372;52.902;6.024;2023-07-22T14:18:52;18.00;99.90
52459;DHT22;38372;52.902;6.024;2023-07-22T14:21:19;18.00;99.90
52459;DHT22;38372;52.902;6.024;2023-07-22T14:23:44;17.90;99.90
52459;DHT22;38372;52.902;6.024;2023-07-22T14:26:10;17.80;99.90
52459;DHT22;38372;52.902;6.024;2023-07-22T14:28:36;17.80;99.90
52459;DHT22;38372;52.902;6.024;2023-07-22T14:31:02;17.70;99.90
52459;DHT22;38372;52.902;6.024;2023-07-22T14:33:29;17.60;99.90
52459;DHT22;38372;52.902;6.024;2023-07-22T14:35:55;17.50;99.90
52459;DHT22;38372;52.902;6.024;2023-07-22T14:38:21;17.40;99.90
52459;DHT22;38372;52.902;6.024;2023-07-22T14:40:47;17.40;99.90
52459;DHT22;38372;52.902;6.024;2023-07-22T14:43:13;17.30;99.90
52459;DHT22;38372;52.902;6.024;2023-07-22T14:45:39;17.30;99.90
52459;DHT22;38372;52.902;6.024;2023-07-22T14:48:05;17.20;99.90
52459;DHT22;38372;52.902;6.024;2023-07-22T14:50:31;17.20;99.90
52459;DHT22;38372;52.902;6.024;2023-07-22T14:52:57;17.10;99.90
52459;DHT22;38372;52.902;6.024;2023-07-22T14:55:23;17.10;99.90
52459;DHT22;38372;52.902;6.024;2023-07-22T14:57:48;17.10;99.90
52459;DHT22;38372;52.902;6.024;2023-07-22T15:00:14;17.00;99.90
52459;DHT22;38372;52.902;6.024;2023-07-22T15:02:40;16.90;99.90
52459;DHT22;38372;52.902;6.024;2023-07-22T15:05:06;16.90;99.90
52459;DHT22;38372;52.902;6.024;2023-07-22T15:07:32;16.80;99.90
52459;DHT22;38372;52.902;6.024;2023-07-22T15:09:58;16.70;99.90
52459;DHT22;38372;52.902;6.024;2023-07-22T15:12:24;16.70;99.90
52459;DHT22;38372;52.902;6.024;2023-07-22T15:14:50;16.60;99.90
52459;DHT22;38372;52.902;6.024;2023-07-22T15:17:16;16.60;99.90
52459;DHT22;38372;52.902;6.024;2023-07-22T15:19:41;16.50;99.90
52459;DHT22;38372;52.902;6.024;2023-07-22T15:22:07;16.50;99.90
52459;DHT22;38372;52.902;6.024;2023-07-22T15:24:33;16.50;99.90
52459;DHT22;38372;52.902;6.024;2023-07-22T15:26:59;16.50;99.90
52459;DHT22;38372;52.902;6.024;2023-07-22T15:29:25;16.50;99.90
52459;DHT22;38372;52.902;6.024;2023-07-22T15:31:51;16.50;99.90